ITY1793 LIML-LICJ
Flight info
| Callsign | ITY1793 |
|---|---|
| Flight time | N/A |
| Altitude | 37000 |
| Route | LOGDI DCT LOMED DCT LURON |
| Aircraft | A320/M-SDE3FGHIRWY/LB1 |
Departure
| Time | N/A |
|---|---|
| Airport | Milano Linate Airport (LIML) |
Arrival
| Time | 2026-04-27 13:41 |
|---|---|
| Airport | Falcone–Borsellino Airport (LICJ) |
| Time | Latitude | Longitude | Altitude | Speed | Heading |
|---|---|---|---|---|---|
| 2026-04-27 12:42 | 42.22822 | 11.77943 | 37152 ft | 478 kts | 164° |
| 2026-04-27 12:43 | 42.16466 | 11.80603 | 37148 ft | 479 kts | 165° |
| 2026-04-27 12:43 | 42.10092 | 11.83251 | 37199 ft | 480 kts | 165° |
| 2026-04-27 12:44 | 42.03704 | 11.85912 | 37225 ft | 480 kts | 165° |
| 2026-04-27 12:44 | 41.97315 | 11.88570 | 37245 ft | 481 kts | 165° |
| 2026-04-27 12:45 | 41.90917 | 11.91219 | 37257 ft | 481 kts | 165° |
| 2026-04-27 12:45 | 41.84516 | 11.93868 | 37252 ft | 481 kts | 165° |
| 2026-04-27 12:46 | 41.78110 | 11.96512 | 37157 ft | 482 kts | 165° |
| 2026-04-27 12:46 | 41.71686 | 11.99155 | 37162 ft | 482 kts | 165° |
| 2026-04-27 12:47 | 41.65267 | 12.01793 | 37159 ft | 482 kts | 165° |
| 2026-04-27 12:47 | 41.58851 | 12.04421 | 37163 ft | 483 kts | 165° |
| 2026-04-27 12:48 | 41.52459 | 12.07032 | 37158 ft | 483 kts | 165° |
| 2026-04-27 12:48 | 41.46025 | 12.09668 | 37160 ft | 483 kts | 165° |
| 2026-04-27 12:49 | 41.39587 | 12.12290 | 37166 ft | 484 kts | 165° |
| 2026-04-27 12:49 | 41.33141 | 12.14909 | 37154 ft | 484 kts | 165° |
| 2026-04-27 12:50 | 41.26686 | 12.17528 | 37163 ft | 484 kts | 165° |
| 2026-04-27 12:50 | 41.20238 | 12.20140 | 37163 ft | 485 kts | 165° |
| 2026-04-27 12:51 | 41.13782 | 12.22753 | 37164 ft | 485 kts | 165° |
| 2026-04-27 12:51 | 41.07320 | 12.25357 | 37158 ft | 485 kts | 165° |
| 2026-04-27 12:52 | 41.00855 | 12.27952 | 37160 ft | 486 kts | 165° |
| 2026-04-27 12:52 | 40.94390 | 12.30546 | 37159 ft | 486 kts | 165° |
| 2026-04-27 12:53 | 40.84685 | 12.34445 | 37145 ft | 482 kts | 165° |
| 2026-04-27 12:53 | 40.81509 | 12.35722 | 37160 ft | 471 kts | 165° |
| 2026-04-27 12:53 | 40.78399 | 12.36965 | 37156 ft | 462 kts | 165° |
| 2026-04-27 12:54 | 40.72332 | 12.39381 | 37159 ft | 449 kts | 165° |
| 2026-04-27 12:54 | 40.66465 | 12.41714 | 37158 ft | 438 kts | 165° |
| 2026-04-27 12:55 | 40.60695 | 12.44012 | 37156 ft | 428 kts | 165° |
| 2026-04-27 12:55 | 40.55042 | 12.46258 | 37161 ft | 420 kts | 165° |
| 2026-04-27 12:56 | 40.49501 | 12.48447 | 37166 ft | 413 kts | 165° |
| 2026-04-27 12:56 | 40.43915 | 12.50664 | 37161 ft | 425 kts | 165° |
| 2026-04-27 12:57 | 40.38653 | 12.52719 | 37161 ft | 435 kts | 165° |
| 2026-04-27 12:57 | 40.33787 | 12.54624 | 37159 ft | 443 kts | 165° |
| 2026-04-27 12:58 | 40.27817 | 12.56971 | 37157 ft | 452 kts | 165° |
| 2026-04-27 12:58 | 40.21736 | 12.59370 | 37161 ft | 460 kts | 165° |
| 2026-04-27 12:59 | 40.15565 | 12.61790 | 37162 ft | 465 kts | 165° |
| 2026-04-27 12:59 | 40.09331 | 12.64219 | 37160 ft | 469 kts | 165° |
| 2026-04-27 13:00 | 40.03054 | 12.66676 | 37159 ft | 472 kts | 165° |
| 2026-04-27 13:00 | 39.96746 | 12.69143 | 37153 ft | 474 kts | 165° |
| 2026-04-27 13:01 | 39.90417 | 12.71607 | 37161 ft | 475 kts | 165° |
| 2026-04-27 13:01 | 39.84081 | 12.74069 | 37167 ft | 476 kts | 165° |
| 2026-04-27 13:02 | 39.77770 | 12.76511 | 37158 ft | 476 kts | 165° |
| 2026-04-27 13:02 | 39.71405 | 12.78959 | 37158 ft | 477 kts | 165° |
| 2026-04-27 13:03 | 39.65051 | 12.81404 | 37235 ft | 476 kts | 165° |
| 2026-04-27 13:03 | 39.61813 | 12.82653 | 36483 ft | 488 kts | 165° |
| 2026-04-27 13:03 | 39.58577 | 12.83901 | 36700 ft | 485 kts | 165° |
| 2026-04-27 13:04 | 39.55363 | 12.85141 | 36918 ft | 477 kts | 165° |
| 2026-04-27 13:04 | 39.52197 | 12.86364 | 36671 ft | 473 kts | 165° |
| 2026-04-27 13:04 | 39.49069 | 12.87571 | 36213 ft | 465 kts | 165° |
| 2026-04-27 13:04 | 39.45983 | 12.88756 | 35625 ft | 460 kts | 165° |
| 2026-04-27 13:05 | 39.42934 | 12.89923 | 35044 ft | 455 kts | 165° |
| 2026-04-27 13:05 | 39.39907 | 12.91077 | 34506 ft | 452 kts | 165° |
| 2026-04-27 13:05 | 39.36890 | 12.92225 | 33840 ft | 450 kts | 165° |
| 2026-04-27 13:05 | 39.33893 | 12.93368 | 33128 ft | 448 kts | 165° |
| 2026-04-27 13:06 | 39.30953 | 12.94495 | 32453 ft | 444 kts | 165° |
| 2026-04-27 13:06 | 39.27988 | 12.95629 | 31773 ft | 440 kts | 166° |
| 2026-04-27 13:06 | 39.25062 | 12.96742 | 31123 ft | 437 kts | 166° |
| 2026-04-27 13:06 | 39.22157 | 12.97847 | 30484 ft | 434 kts | 166° |
| 2026-04-27 13:07 | 39.19272 | 12.98948 | 29792 ft | 430 kts | 166° |
| 2026-04-27 13:07 | 39.16386 | 13.00050 | 29064 ft | 431 kts | 165° |
| 2026-04-27 13:07 | 39.13508 | 13.01145 | 28357 ft | 430 kts | 165° |
| 2026-04-27 13:07 | 39.10637 | 13.02233 | 27668 ft | 429 kts | 165° |
| 2026-04-27 13:08 | 39.07775 | 13.03317 | 26982 ft | 428 kts | 165° |
| 2026-04-27 13:08 | 39.04919 | 13.04399 | 26251 ft | 428 kts | 165° |
| 2026-04-27 13:08 | 39.02060 | 13.05477 | 25530 ft | 426 kts | 165° |
| 2026-04-27 13:08 | 38.99254 | 13.06538 | 24829 ft | 414 kts | 165° |
| 2026-04-27 13:09 | 38.96560 | 13.07552 | 24161 ft | 403 kts | 165° |
| 2026-04-27 13:09 | 38.93868 | 13.08562 | 23446 ft | 393 kts | 165° |
| 2026-04-27 13:09 | 38.91266 | 13.09539 | 22656 ft | 386 kts | 166° |
| 2026-04-27 13:09 | 38.88643 | 13.10094 | 21896 ft | 379 kts | 179° |
| 2026-04-27 13:10 | 38.86035 | 13.09878 | 21153 ft | 373 kts | 192° |
| 2026-04-27 13:10 | 38.83590 | 13.08925 | 20445 ft | 375 kts | 205° |
| 2026-04-27 13:10 | 38.81316 | 13.07249 | 19736 ft | 378 kts | 217° |
| 2026-04-27 13:10 | 38.79200 | 13.05236 | 19035 ft | 376 kts | 217° |
| 2026-04-27 13:11 | 38.77119 | 13.03268 | 18349 ft | 367 kts | 217° |
| 2026-04-27 13:11 | 38.75081 | 13.01352 | 17579 ft | 360 kts | 217° |
| 2026-04-27 13:11 | 38.73080 | 12.99476 | 16833 ft | 353 kts | 217° |
| 2026-04-27 13:11 | 38.71117 | 12.97633 | 16104 ft | 347 kts | 217° |
| 2026-04-27 13:12 | 38.69186 | 12.95817 | 15463 ft | 341 kts | 217° |
| 2026-04-27 13:12 | 38.67280 | 12.94021 | 15071 ft | 339 kts | 218° |
| 2026-04-27 13:12 | 38.65387 | 12.92239 | 14681 ft | 337 kts | 218° |
| 2026-04-27 13:12 | 38.63501 | 12.90465 | 14276 ft | 334 kts | 218° |
| 2026-04-27 13:13 | 38.61634 | 12.88709 | 13873 ft | 332 kts | 218° |
| 2026-04-27 13:13 | 38.59779 | 12.86967 | 13415 ft | 330 kts | 218° |
| 2026-04-27 13:13 | 38.57935 | 12.85240 | 12950 ft | 328 kts | 218° |
| 2026-04-27 13:13 | 38.56103 | 12.83524 | 12436 ft | 325 kts | 217° |
| 2026-04-27 13:14 | 38.54288 | 12.81824 | 11933 ft | 322 kts | 217° |
| 2026-04-27 13:14 | 38.52477 | 12.80132 | 11443 ft | 322 kts | 217° |
| 2026-04-27 13:14 | 38.50691 | 12.78460 | 10954 ft | 322 kts | 217° |
| 2026-04-27 13:14 | 38.48886 | 12.76768 | 10472 ft | 322 kts | 217° |
| 2026-04-27 13:15 | 38.47086 | 12.75080 | 9993 ft | 321 kts | 217° |
| 2026-04-27 13:15 | 38.45266 | 12.73436 | 9468 ft | 320 kts | 211° |
| 2026-04-27 13:15 | 38.43181 | 12.72456 | 8948 ft | 321 kts | 190° |
| 2026-04-27 13:15 | 38.40954 | 12.72499 | 8435 ft | 322 kts | 168° |
| 2026-04-27 13:16 | 38.38862 | 12.73489 | 7950 ft | 321 kts | 155° |
| 2026-04-27 13:16 | 38.36842 | 12.74688 | 7442 ft | 319 kts | 155° |
| 2026-04-27 13:16 | 38.34832 | 12.75886 | 6958 ft | 318 kts | 155° |
| 2026-04-27 13:16 | 38.32837 | 12.77078 | 6473 ft | 316 kts | 155° |
| 2026-04-27 13:17 | 38.30850 | 12.78259 | 5964 ft | 314 kts | 155° |
| 2026-04-27 13:17 | 38.28874 | 12.79427 | 5459 ft | 311 kts | 155° |
| 2026-04-27 13:17 | 38.26920 | 12.80583 | 4965 ft | 308 kts | 155° |
| 2026-04-27 13:17 | 38.24984 | 12.81731 | 4457 ft | 306 kts | 155° |
| 2026-04-27 13:18 | 38.23055 | 12.82843 | 3952 ft | 303 kts | 157° |
| 2026-04-27 13:18 | 38.21128 | 12.83898 | 3454 ft | 300 kts | 158° |
| 2026-04-27 13:18 | 38.19216 | 12.84920 | 2952 ft | 297 kts | 158° |
| 2026-04-27 13:18 | 38.17339 | 12.85916 | 2473 ft | 295 kts | 158° |
| 2026-04-27 13:19 | 38.15491 | 12.86900 | 2311 ft | 280 kts | 158° |
| 2026-04-27 13:19 | 38.13759 | 12.87826 | 2312 ft | 260 kts | 158° |
| 2026-04-27 13:19 | 38.12228 | 12.88864 | 2310 ft | 241 kts | 136° |
| 2026-04-27 13:19 | 38.11478 | 12.90625 | 2316 ft | 222 kts | 95° |
| 2026-04-27 13:20 | 38.11703 | 12.92458 | 2313 ft | 204 kts | 70° |
| 2026-04-27 13:20 | 38.12231 | 12.94059 | 2303 ft | 189 kts | 64° |
| 2026-04-27 13:20 | 38.12774 | 12.95498 | 2338 ft | 170 kts | 63° |
| 2026-04-27 13:20 | 38.13275 | 12.96822 | 2096 ft | 165 kts | 64° |
| 2026-04-27 13:21 | 38.13752 | 12.98108 | 1847 ft | 158 kts | 64° |
| 2026-04-27 13:21 | 38.14195 | 12.99335 | 1633 ft | 147 kts | 65° |
| 2026-04-27 13:21 | 38.14601 | 13.00485 | 1390 ft | 141 kts | 65° |
| 2026-04-27 13:21 | 38.14999 | 13.01618 | 1087 ft | 139 kts | 65° |
| 2026-04-27 13:22 | 38.15384 | 13.02720 | 813 ft | 135 kts | 64° |
| 2026-04-27 13:22 | 38.15759 | 13.03791 | 559 ft | 130 kts | 65° |
| 2026-04-27 13:22 | 38.16118 | 13.04819 | 373 ft | 120 kts | 65° |
| 2026-04-27 13:22 | 38.16424 | 13.05703 | 255 ft | 104 kts | 65° |
| 2026-04-27 13:23 | 38.16725 | 13.06602 | 417 ft | 97 kts | 66° |
| 2026-04-27 13:23 | 38.17021 | 13.07410 | 32 ft | 125 kts | 62° |
| 2026-04-27 13:23 | 38.17425 | 13.08483 | 366 ft | 156 kts | 65° |
| 2026-04-27 13:23 | 38.17652 | 13.09930 | 836 ft | 164 kts | 70° |
| 2026-04-27 13:24 | 38.18207 | 13.11114 | 1657 ft | 165 kts | 36° |
| 2026-04-27 13:24 | 38.19317 | 13.11780 | 2131 ft | 194 kts | 20° |
| 2026-04-27 13:24 | 38.20459 | 13.12839 | 2562 ft | 205 kts | 49° |
| 2026-04-27 13:24 | 38.21521 | 13.14140 | 2862 ft | 231 kts | 32° |
| 2026-04-27 13:25 | 38.23096 | 13.14833 | 2440 ft | 232 kts | 10° |
| 2026-04-27 13:25 | 38.24579 | 13.15134 | 2326 ft | 201 kts | 8° |
| 2026-04-27 13:25 | 38.25869 | 13.15373 | 2298 ft | 174 kts | 8° |
| 2026-04-27 13:25 | 38.26984 | 13.15463 | 2296 ft | 155 kts | 351° |
| 2026-04-27 13:26 | 38.27951 | 13.14920 | 2297 ft | 150 kts | 318° |
| 2026-04-27 13:26 | 38.28513 | 13.13855 | 2306 ft | 148 kts | 286° |
| 2026-04-27 13:26 | 38.28556 | 13.12545 | 2313 ft | 148 kts | 260° |
| 2026-04-27 13:26 | 38.28388 | 13.11240 | 2337 ft | 155 kts | 261° |
| 2026-04-27 13:27 | 38.28210 | 13.09807 | 2292 ft | 171 kts | 261° |
| 2026-04-27 13:27 | 38.28031 | 13.08353 | 2285 ft | 168 kts | 261° |
| 2026-04-27 13:27 | 38.27850 | 13.06891 | 2304 ft | 167 kts | 261° |
| 2026-04-27 13:27 | 38.27668 | 13.05429 | 2305 ft | 167 kts | 261° |
| 2026-04-27 13:28 | 38.27485 | 13.03973 | 2310 ft | 167 kts | 261° |
| 2026-04-27 13:28 | 38.27302 | 13.02515 | 2316 ft | 167 kts | 261° |
| 2026-04-27 13:28 | 38.27121 | 13.01058 | 2312 ft | 167 kts | 261° |
| 2026-04-27 13:28 | 38.26942 | 12.99618 | 2313 ft | 167 kts | 261° |
| 2026-04-27 13:29 | 38.26763 | 12.98161 | 2313 ft | 166 kts | 261° |
| 2026-04-27 13:29 | 38.26582 | 12.96706 | 2318 ft | 166 kts | 261° |
| 2026-04-27 13:29 | 38.26401 | 12.95253 | 2316 ft | 166 kts | 261° |
| 2026-04-27 13:29 | 38.26221 | 12.93798 | 2317 ft | 166 kts | 261° |
| 2026-04-27 13:30 | 38.26041 | 12.92344 | 2315 ft | 166 kts | 261° |
| 2026-04-27 13:30 | 38.25857 | 12.90883 | 2319 ft | 166 kts | 261° |
| 2026-04-27 13:30 | 38.25676 | 12.89450 | 2320 ft | 166 kts | 261° |
| 2026-04-27 13:30 | 38.25497 | 12.87997 | 2317 ft | 166 kts | 265° |
| 2026-04-27 13:31 | 38.25654 | 12.86561 | 2369 ft | 165 kts | 286° |
| 2026-04-27 13:31 | 38.26036 | 12.85181 | 2537 ft | 166 kts | 293° |
| 2026-04-27 13:31 | 38.26541 | 12.83856 | 2678 ft | 168 kts | 294° |
| 2026-04-27 13:31 | 38.26606 | 12.82435 | 2666 ft | 166 kts | 243° |
| 2026-04-27 13:32 | 38.25765 | 12.81474 | 2669 ft | 167 kts | 207° |
| 2026-04-27 13:32 | 38.24701 | 12.80869 | 2661 ft | 167 kts | 204° |
| 2026-04-27 13:32 | 38.23635 | 12.80279 | 2659 ft | 167 kts | 202° |
| 2026-04-27 13:32 | 38.22527 | 12.79833 | 2742 ft | 167 kts | 192° |
| 2026-04-27 13:33 | 38.21366 | 12.79691 | 2839 ft | 168 kts | 180° |
| 2026-04-27 13:33 | 38.20249 | 12.80079 | 2777 ft | 169 kts | 145° |
| 2026-04-27 13:33 | 38.19329 | 12.81014 | 2710 ft | 169 kts | 142° |
| 2026-04-27 13:33 | 38.18413 | 12.81929 | 2679 ft | 169 kts | 142° |
| 2026-04-27 13:34 | 38.17487 | 12.82847 | 2649 ft | 159 kts | 142° |
| 2026-04-27 13:34 | 38.16648 | 12.83679 | 2648 ft | 152 kts | 143° |
| 2026-04-27 13:34 | 38.15824 | 12.84493 | 2656 ft | 149 kts | 143° |
| 2026-04-27 13:34 | 38.15007 | 12.85300 | 2669 ft | 148 kts | 143° |
| 2026-04-27 13:35 | 38.14193 | 12.86105 | 2658 ft | 148 kts | 143° |
| 2026-04-27 13:35 | 38.13382 | 12.86909 | 2659 ft | 148 kts | 143° |
| 2026-04-27 13:35 | 38.12570 | 12.87714 | 2656 ft | 148 kts | 143° |
| 2026-04-27 13:35 | 38.11757 | 12.88519 | 2652 ft | 148 kts | 143° |
| 2026-04-27 13:36 | 38.10944 | 12.89326 | 2653 ft | 148 kts | 143° |
| 2026-04-27 13:36 | 38.10187 | 12.90216 | 2628 ft | 149 kts | 133° |
| 2026-04-27 13:36 | 38.09764 | 12.91390 | 2472 ft | 149 kts | 98° |
| 2026-04-27 13:36 | 38.09674 | 12.92753 | 1951 ft | 163 kts | 91° |
| 2026-04-27 13:37 | 38.09850 | 12.94120 | 1690 ft | 153 kts | 66° |
| 2026-04-27 13:37 | 38.10291 | 12.95304 | 1503 ft | 145 kts | 61° |
| 2026-04-27 13:37 | 38.10775 | 12.96414 | 1324 ft | 142 kts | 56° |
| 2026-04-27 13:37 | 38.11330 | 12.97439 | 1146 ft | 140 kts | 53° |
| 2026-04-27 13:38 | 38.11903 | 12.98421 | 965 ft | 137 kts | 52° |
| 2026-04-27 13:38 | 38.12494 | 12.99355 | 794 ft | 135 kts | 51° |
| 2026-04-27 13:38 | 38.13068 | 13.00274 | 617 ft | 131 kts | 53° |
| 2026-04-27 13:38 | 38.13601 | 13.01194 | 532 ft | 129 kts | 53° |
| 2026-04-27 13:39 | 38.14123 | 13.02110 | 513 ft | 128 kts | 54° |
| 2026-04-27 13:39 | 38.14631 | 13.03051 | 509 ft | 129 kts | 56° |
| 2026-04-27 13:39 | 38.15230 | 13.03899 | 509 ft | 129 kts | 45° |
| 2026-04-27 13:39 | 38.15935 | 13.04608 | 510 ft | 130 kts | 38° |
| 2026-04-27 13:40 | 38.16536 | 13.05427 | 479 ft | 127 kts | 69° |
| 2026-04-27 13:40 | 38.16750 | 13.06550 | 403 ft | 132 kts | 68° |
| 2026-04-27 13:40 | 38.16931 | 13.07279 | 327 ft | 130 kts | 65° |
| 2026-04-27 13:40 | 38.17313 | 13.08306 | 225 ft | 129 kts | 64° |
| 2026-04-27 13:41 | 38.17753 | 13.09587 | 71 ft | 104 kts | 67° |
| 2026-04-27 13:41 | 38.17950 | 13.10150 | 61 ft | 33 kts | 67° |
| 2026-04-27 13:41 | 38.18059 | 13.10483 | 67 ft | 43 kts | 69° |
| 2026-04-27 13:41 | 38.18124 | 13.10701 | 65 ft | 29 kts | 64° |
| 2026-04-27 13:42 | 38.18156 | 13.10711 | 63 ft | 3 kts | 306° |
| 2026-04-27 13:42 | 38.18167 | 13.10684 | 70 ft | 4 kts | 284° |
| 2026-04-27 13:42 | 38.18172 | 13.10645 | 69 ft | 5 kts | 280° |
| 2026-04-27 13:42 | 38.18180 | 13.10588 | 64 ft | 9 kts | 279° |
| 2026-04-27 13:43 | 38.18198 | 13.10435 | 61 ft | 20 kts | 287° |
| 2026-04-27 13:43 | 38.18291 | 13.10356 | 60 ft | 15 kts | 323° |
| 2026-04-27 13:43 | 38.18360 | 13.10340 | 63 ft | 8 kts | 64° |
| 2026-04-27 13:43 | 38.18394 | 13.10420 | 63 ft | 16 kts | 64° |
| 2026-04-27 13:44 | 38.18452 | 13.10549 | 65 ft | 17 kts | 57° |
| 2026-04-27 13:44 | 38.18497 | 13.10684 | 63 ft | 15 kts | 59° |
| 2026-04-27 13:44 | 38.18538 | 13.10688 | 59 ft | 0 kts | 319° |
| 2026-04-27 13:45 | 38.18547 | 13.10678 | 62 ft | 3 kts | 322° |
| 2026-04-27 13:45 | 38.18565 | 13.10666 | 63 ft | 0 kts | 333° |